Point Judith, Rhode Island
Current Conditions -  °F | °C
As of 10:53 AM on Saturday 25 Oct 2014 (Local Time) from KUUU Reporting Station
Clear Clear  
Wind Chill: 59°   Ceiling: Unl
Heat Index: 59°   Visibility: 10mi
Dew Point: 44°   Wind: 8mph
Humidity: 58%   Direction: 290°WNW
Pressure: 29.75"   Gusts: NA
Location:  41.4075°N, 71.4775°W
Report Text: KUUU 251453Z AUTO 29007KT 10SM CLR 15/07 A2975 RMK AO2 SLP074 T01500067 58012
Loading
Personal Weather Stations






























Interactive Weather Map
Tropical Storm Tracking
New forecast layout! Learn more

10-Day Weather Forecast

Advertisements
Track Severe Weather on mobile